sensor_id;sensor_type;location;lat;lon;timestamp;P1;P2;P0
78063;PMS5003;67429;51.596;-3.264;2023-10-31T00:01:47;7;7;
78063;PMS5003;67429;51.596;-3.264;2023-10-31T00:04:13;9;8;
78063;PMS5003;67429;51.596;-3.264;2023-10-31T00:06:39;5;5;
78063;PMS5003;67429;51.596;-3.264;2023-10-31T00:09:04;7;5;
78063;PMS5003;67429;51.596;-3.264;2023-10-31T00:11:30;6;6;
78063;PMS5003;67429;51.596;-3.264;2023-10-31T00:13:55;5;5;
78063;PMS5003;67429;51.596;-3.264;2023-10-31T00:16:21;5;5;
78063;PMS5003;67429;51.596;-3.264;2023-10-31T00:18:46;5;5;
78063;PMS5003;67429;51.596;-3.264;2023-10-31T00:21:12;8;8;
78063;PMS5003;67429;51.596;-3.264;2023-10-31T00:23:42;7;6;
78063;PMS5003;67429;51.596;-3.264;2023-10-31T00:26:03;7;6;
78063;PMS5003;67429;51.596;-3.264;2023-10-31T00:28:28;9;8;
78063;PMS5003;67429;51.596;-3.264;2023-10-31T00:30:54;8;7;
78063;PMS5003;67429;51.596;-3.264;2023-10-31T00:33:19;8;7;
78063;PMS5003;67429;51.596;-3.264;2023-10-31T00:35:45;6;6;
78063;PMS5003;67429;51.596;-3.264;2023-10-31T00:38:10;5;5;
78063;PMS5003;67429;51.596;-3.264;2023-10-31T00:40:36;7;7;
78063;PMS5003;67429;51.596;-3.264;2023-10-31T00:43:02;5;5;
78063;PMS5003;67429;51.596;-3.264;2023-10-31T00:45:27;8;8;
78063;PMS5003;67429;51.596;-3.264;2023-10-31T00:47:53;8;8;
78063;PMS5003;67429;51.596;-3.264;2023-10-31T00:50:19;7;7;
78063;PMS5003;67429;51.596;-3.264;2023-10-31T00:52:44;9;9;
78063;PMS5003;67429;51.596;-3.264;2023-10-31T00:55:10;9;9;
78063;PMS5003;67429;51.596;-3.264;2023-10-31T00:57:35;8;8;
78063;PMS5003;67429;51.596;-3.264;2023-10-31T01:00:01;7;6;
78063;PMS5003;67429;51.596;-3.264;2023-10-31T01:02:26;9;8;
78063;PMS5003;67429;51.596;-3.264;2023-10-31T01:04:52;10;8;
78063;PMS5003;67429;51.596;-3.264;2023-10-31T01:07:17;8;8;
78063;PMS5003;67429;51.596;-3.264;2023-10-31T01:09:43;7;7;
78063;PMS5003;67429;51.596;-3.264;2023-10-31T01:12:09;9;8;
78063;PMS5003;67429;51.596;-3.264;2023-10-31T01:14:34;8;8;
78063;PMS5003;67429;51.596;-3.264;2023-10-31T01:16:59;8;8;
78063;PMS5003;67429;51.596;-3.264;2023-10-31T01:19:25;4;4;
78063;PMS5003;67429;51.596;-3.264;2023-10-31T01:21:50;9;8;
78063;PMS5003;67429;51.596;-3.264;2023-10-31T01:24:16;5;5;
78063;PMS5003;67429;51.596;-3.264;2023-10-31T01:26:41;6;6;
78063;PMS5003;67429;51.596;-3.264;2023-10-31T01:29:07;9;8;
78063;PMS5003;67429;51.596;-3.264;2023-10-31T01:31:32;8;8;
78063;PMS5003;67429;51.596;-3.264;2023-10-31T01:33:58;9;9;
78063;PMS5003;67429;51.596;-3.264;2023-10-31T01:36:24;8;8;
78063;PMS5003;67429;51.596;-3.264;2023-10-31T01:38:49;7;6;
78063;PMS5003;67429;51.596;-3.264;2023-10-31T01:41:15;7;7;
78063;PMS5003;67429;51.596;-3.264;2023-10-31T01:43:40;9;8;
78063;PMS5003;67429;51.596;-3.264;2023-10-31T01:46:06;6;6;
78063;PMS5003;67429;51.596;-3.264;2023-10-31T01:48:32;6;6;
78063;PMS5003;67429;51.596;-3.264;2023-10-31T01:50:58;5;5;
78063;PMS5003;67429;51.596;-3.264;2023-10-31T01:53:22;8;7;
78063;PMS5003;67429;51.596;-3.264;2023-10-31T01:55:49;6;5;
78063;PMS5003;67429;51.596;-3.264;2023-10-31T01:58:14;5;4;
78063;PMS5003;67429;51.596;-3.264;2023-10-31T02:00:39;4;4;
78063;PMS5003;67429;51.596;-3.264;2023-10-31T02:03:05;4;2;
78063;PMS5003;67429;51.596;-3.264;2023-10-31T02:05:31;3;3;
78063;PMS5003;67429;51.596;-3.264;2023-10-31T02:07:56;3;2;
78063;PMS5003;67429;51.596;-3.264;2023-10-31T02:10:22;2;2;
78063;PMS5003;67429;51.596;-3.264;2023-10-31T02:12:47;2;2;
78063;PMS5003;67429;51.596;-3.264;2023-10-31T02:15:13;2;2;
78063;PMS5003;67429;51.596;-3.264;2023-10-31T02:17:39;2;2;
78063;PMS5003;67429;51.596;-3.264;2023-10-31T02:20:04;4;4;
78063;PMS5003;67429;51.596;-3.264;2023-10-31T02:22:30;3;3;
78063;PMS5003;67429;51.596;-3.264;2023-10-31T02:24:55;4;2;
78063;PMS5003;67429;51.596;-3.264;2023-10-31T02:27:21;2;2;
78063;PMS5003;67429;51.596;-3.264;2023-10-31T02:29:46;3;2;
78063;PMS5003;67429;51.596;-3.264;2023-10-31T02:32:12;1;1;
78063;PMS5003;67429;51.596;-3.264;2023-10-31T02:34:37;2;2;
78063;PMS5003;67429;51.596;-3.264;2023-10-31T02:37:03;2;2;
78063;PMS5003;67429;51.596;-3.264;2023-10-31T02:39:29;2;2;
78063;PMS5003;67429;51.596;-3.264;2023-10-31T02:41:54;3;2;
78063;PMS5003;67429;51.596;-3.264;2023-10-31T02:44:20;2;2;
78063;PMS5003;67429;51.596;-3.264;2023-10-31T02:46:45;3;2;
78063;PMS5003;67429;51.596;-3.264;2023-10-31T02:49:11;1;1;
78063;PMS5003;67429;51.596;-3.264;2023-10-31T02:51:37;2;2;
78063;PMS5003;67429;51.596;-3.264;2023-10-31T02:54:02;2;2;
78063;PMS5003;67429;51.596;-3.264;2023-10-31T02:56:28;2;1;
78063;PMS5003;67429;51.596;-3.264;2023-10-31T02:58:53;4;2;
78063;PMS5003;67429;51.596;-3.264;2023-10-31T03:01:19;2;1;
78063;PMS5003;67429;51.596;-3.264;2023-10-31T03:03:44;2;1;
78063;PMS5003;67429;51.596;-3.264;2023-10-31T03:06:10;2;2;
78063;PMS5003;67429;51.596;-3.264;2023-10-31T03:08:36;2;2;
78063;PMS5003;67429;51.596;-3.264;2023-10-31T03:11:01;4;3;
78063;PMS5003;67429;51.596;-3.264;2023-10-31T03:13:27;2;2;
78063;PMS5003;67429;51.596;-3.264;2023-10-31T03:15:52;1;1;
78063;PMS5003;67429;51.596;-3.264;2023-10-31T03:18:18;1;1;
78063;PMS5003;67429;51.596;-3.264;2023-10-31T03:20:44;1;1;
78063;PMS5003;67429;51.596;-3.264;2023-10-31T03:23:09;3;3;
78063;PMS5003;67429;51.596;-3.264;2023-10-31T03:25:35;2;2;
78063;PMS5003;67429;51.596;-3.264;2023-10-31T03:28:01;2;2;
78063;PMS5003;67429;51.596;-3.264;2023-10-31T03:30:26;2;2;
78063;PMS5003;67429;51.596;-3.264;2023-10-31T03:32:51;4;3;
78063;PMS5003;67429;51.596;-3.264;2023-10-31T03:35:17;3;2;
78063;PMS5003;67429;51.596;-3.264;2023-10-31T03:37:43;2;2;
78063;PMS5003;67429;51.596;-3.264;2023-10-31T03:40:08;4;4;
78063;PMS5003;67429;51.596;-3.264;2023-10-31T03:42:34;4;3;
78063;PMS5003;67429;51.596;-3.264;2023-10-31T03:44:59;3;2;
78063;PMS5003;67429;51.596;-3.264;2023-10-31T03:47:25;2;2;
78063;PMS5003;67429;51.596;-3.264;2023-10-31T03:49:50;2;2;
78063;PMS5003;67429;51.596;-3.264;2023-10-31T03:52:16;3;2;
78063;PMS5003;67429;51.596;-3.264;2023-10-31T03:54:41;2;2;
78063;PMS5003;67429;51.596;-3.264;2023-10-31T03:57:07;1;1;
78063;PMS5003;67429;51.596;-3.264;2023-10-31T03:59:33;3;2;
78063;PMS5003;67429;51.596;-3.264;2023-10-31T04:01:58;2;2;
78063;PMS5003;67429;51.596;-3.264;2023-10-31T04:04:24;1;1;
78063;PMS5003;67429;51.596;-3.264;2023-10-31T04:06:49;2;2;
78063;PMS5003;67429;51.596;-3.264;2023-10-31T04:09:15;2;2;
78063;PMS5003;67429;51.596;-3.264;2023-10-31T04:11:40;2;2;
78063;PMS5003;67429;51.596;-3.264;2023-10-31T04:14:06;2;2;
78063;PMS5003;67429;51.596;-3.264;2023-10-31T04:16:32;1;1;
78063;PMS5003;67429;51.596;-3.264;2023-10-31T04:18:57;2;2;
78063;PMS5003;67429;51.596;-3.264;2023-10-31T04:21:23;2;2;
78063;PMS5003;67429;51.596;-3.264;2023-10-31T04:23:48;1;1;
78063;PMS5003;67429;51.596;-3.264;2023-10-31T04:26:14;2;2;
78063;PMS5003;67429;51.596;-3.264;2023-10-31T04:28:40;2;1;
78063;PMS5003;67429;51.596;-3.264;2023-10-31T04:31:05;3;2;
78063;PMS5003;67429;51.596;-3.264;2023-10-31T04:33:31;2;1;
78063;PMS5003;67429;51.596;-3.264;2023-10-31T04:35:56;2;2;
78063;PMS5003;67429;51.596;-3.264;2023-10-31T04:38:22;3;3;
78063;PMS5003;67429;51.596;-3.264;2023-10-31T04:40:47;1;1;
78063;PMS5003;67429;51.596;-3.264;2023-10-31T04:43:13;3;2;
78063;PMS5003;67429;51.596;-3.264;2023-10-31T04:45:39;3;2;
78063;PMS5003;67429;51.596;-3.264;2023-10-31T04:48:04;2;2;
78063;PMS5003;67429;51.596;-3.264;2023-10-31T04:50:30;2;2;
78063;PMS5003;67429;51.596;-3.264;2023-10-31T04:52:55;2;2;
78063;PMS5003;67429;51.596;-3.264;2023-10-31T04:55:21;2;2;
78063;PMS5003;67429;51.596;-3.264;2023-10-31T04:57:47;2;2;
78063;PMS5003;67429;51.596;-3.264;2023-10-31T05:00:12;1;1;
78063;PMS5003;67429;51.596;-3.264;2023-10-31T05:02:43;2;2;
78063;PMS5003;67429;51.596;-3.264;2023-10-31T05:05:03;3;3;
78063;PMS5003;67429;51.596;-3.264;2023-10-31T05:07:29;2;2;
78063;PMS5003;67429;51.596;-3.264;2023-10-31T05:09:54;3;2;
78063;PMS5003;67429;51.596;-3.264;2023-10-31T05:12:20;3;3;
78063;PMS5003;67429;51.596;-3.264;2023-10-31T05:14:46;2;2;
78063;PMS5003;67429;51.596;-3.264;2023-10-31T05:17:11;3;3;
78063;PMS5003;67429;51.596;-3.264;2023-10-31T05:19:37;2;2;
78063;PMS5003;67429;51.596;-3.264;2023-10-31T05:22:02;2;2;
78063;PMS5003;67429;51.596;-3.264;2023-10-31T05:24:28;2;2;
78063;PMS5003;67429;51.596;-3.264;2023-10-31T05:26:54;2;2;
78063;PMS5003;67429;51.596;-3.264;2023-10-31T05:29:19;2;2;
78063;PMS5003;67429;51.596;-3.264;2023-10-31T05:31:45;2;2;
78063;PMS5003;67429;51.596;-3.264;2023-10-31T05:34:10;3;2;
78063;PMS5003;67429;51.596;-3.264;2023-10-31T05:36:36;1;1;
78063;PMS5003;67429;51.596;-3.264;2023-10-31T05:39:01;3;2;
78063;PMS5003;67429;51.596;-3.264;2023-10-31T05:41:27;2;2;
78063;PMS5003;67429;51.596;-3.264;2023-10-31T05:43:53;2;2;
78063;PMS5003;67429;51.596;-3.264;2023-10-31T05:46:18;3;3;
78063;PMS5003;67429;51.596;-3.264;2023-10-31T05:48:44;2;2;
78063;PMS5003;67429;51.596;-3.264;2023-10-31T05:51:11;2;2;
78063;PMS5003;67429;51.596;-3.264;2023-10-31T05:53:35;3;3;
78063;PMS5003;67429;51.596;-3.264;2023-10-31T05:56:01;1;1;
78063;PMS5003;67429;51.596;-3.264;2023-10-31T05:58:26;2;2;
78063;PMS5003;67429;51.596;-3.264;2023-10-31T06:00:52;1;1;
78063;PMS5003;67429;51.596;-3.264;2023-10-31T06:03:17;3;2;
78063;PMS5003;67429;51.596;-3.264;2023-10-31T06:05:43;2;2;
78063;PMS5003;67429;51.596;-3.264;2023-10-31T06:08:08;1;1;
78063;PMS5003;67429;51.596;-3.264;2023-10-31T06:10:34;1;1;
78063;PMS5003;67429;51.596;-3.264;2023-10-31T06:13:00;2;2;
78063;PMS5003;67429;51.596;-3.264;2023-10-31T06:15:25;1;1;
78063;PMS5003;67429;51.596;-3.264;2023-10-31T06:17:51;3;2;
78063;PMS5003;67429;51.596;-3.264;2023-10-31T06:20:16;1;1;
78063;PMS5003;67429;51.596;-3.264;2023-10-31T06:22:42;1;1;
78063;PMS5003;67429;51.596;-3.264;2023-10-31T06:25:08;1;1;
78063;PMS5003;67429;51.596;-3.264;2023-10-31T06:27:33;3;2;
78063;PMS5003;67429;51.596;-3.264;2023-10-31T06:29:59;1;1;
78063;PMS5003;67429;51.596;-3.264;2023-10-31T06:32:24;1;1;
78063;PMS5003;67429;51.596;-3.264;2023-10-31T06:34:51;1;1;
78063;PMS5003;67429;51.596;-3.264;2023-10-31T06:37:16;1;0;
78063;PMS5003;67429;51.596;-3.264;2023-10-31T06:39:41;1;1;
78063;PMS5003;67429;51.596;-3.264;2023-10-31T06:42:07;2;1;
78063;PMS5003;67429;51.596;-3.264;2023-10-31T06:44:32;1;1;
78063;PMS5003;67429;51.596;-3.264;2023-10-31T06:46:58;1;1;
78063;PMS5003;67429;51.596;-3.264;2023-10-31T06:49:23;2;2;
78063;PMS5003;67429;51.596;-3.264;2023-10-31T06:51:49;2;1;
78063;PMS5003;67429;51.596;-3.264;2023-10-31T06:54:15;4;3;
78063;PMS5003;67429;51.596;-3.264;2023-10-31T06:56:40;3;3;
78063;PMS5003;67429;51.596;-3.264;2023-10-31T06:59:06;4;4;
78063;PMS5003;67429;51.596;-3.264;2023-10-31T07:01:32;2;2;
78063;PMS5003;67429;51.596;-3.264;2023-10-31T07:03:57;2;2;
78063;PMS5003;67429;51.596;-3.264;2023-10-31T07:06:23;1;1;
78063;PMS5003;67429;51.596;-3.264;2023-10-31T07:08:48;1;1;
78063;PMS5003;67429;51.596;-3.264;2023-10-31T07:11:14;3;3;
78063;PMS5003;67429;51.596;-3.264;2023-10-31T07:13:39;2;2;
78063;PMS5003;67429;51.596;-3.264;2023-10-31T07:16:06;2;2;
78063;PMS5003;67429;51.596;-3.264;2023-10-31T07:18:31;4;4;
78063;PMS5003;67429;51.596;-3.264;2023-10-31T07:20:56;4;4;
78063;PMS5003;67429;51.596;-3.264;2023-10-31T07:23:22;2;2;
78063;PMS5003;67429;51.596;-3.264;2023-10-31T07:25:48;4;4;
78063;PMS5003;67429;51.596;-3.264;2023-10-31T07:28:13;4;4;
78063;PMS5003;67429;51.596;-3.264;2023-10-31T07:30:38;4;4;
78063;PMS5003;67429;51.596;-3.264;2023-10-31T07:33:04;3;3;
78063;PMS5003;67429;51.596;-3.264;2023-10-31T07:35:30;7;7;
78063;PMS5003;67429;51.596;-3.264;2023-10-31T07:37:55;6;6;
78063;PMS5003;67429;51.596;-3.264;2023-10-31T07:40:20;4;4;
78063;PMS5003;67429;51.596;-3.264;2023-10-31T07:42:46;4;4;
78063;PMS5003;67429;51.596;-3.264;2023-10-31T07:45:12;5;4;
78063;PMS5003;67429;51.596;-3.264;2023-10-31T07:47:37;6;6;
78063;PMS5003;67429;51.596;-3.264;2023-10-31T07:50:03;9;9;
78063;PMS5003;67429;51.596;-3.264;2023-10-31T07:52:28;8;8;
78063;PMS5003;67429;51.596;-3.264;2023-10-31T07:54:54;8;8;
78063;PMS5003;67429;51.596;-3.264;2023-10-31T07:57:20;8;7;
78063;PMS5003;67429;51.596;-3.264;2023-10-31T07:59:45;9;9;
78063;PMS5003;67429;51.596;-3.264;2023-10-31T08:02:11;10;8;
78063;PMS5003;67429;51.596;-3.264;2023-10-31T08:04:36;8;8;
78063;PMS5003;67429;51.596;-3.264;2023-10-31T08:07:02;6;5;
78063;PMS5003;67429;51.596;-3.264;2023-10-31T08:09:27;8;8;
78063;PMS5003;67429;51.596;-3.264;2023-10-31T08:11:53;7;7;
78063;PMS5003;67429;51.596;-3.264;2023-10-31T08:14:18;6;6;
78063;PMS5003;67429;51.596;-3.264;2023-10-31T08:16:45;5;5;
78063;PMS5003;67429;51.596;-3.264;2023-10-31T08:19:09;4;4;
78063;PMS5003;67429;51.596;-3.264;2023-10-31T08:21:34;5;4;
78063;PMS5003;67429;51.596;-3.264;2023-10-31T08:24:00;6;6;
78063;PMS5003;67429;51.596;-3.264;2023-10-31T08:26:26;5;5;
78063;PMS5003;67429;51.596;-3.264;2023-10-31T08:28:52;5;5;
78063;PMS5003;67429;51.596;-3.264;2023-10-31T08:31:17;7;5;
78063;PMS5003;67429;51.596;-3.264;2023-10-31T08:33:43;8;8;
78063;PMS5003;67429;51.596;-3.264;2023-10-31T08:36:08;6;6;
78063;PMS5003;67429;51.596;-3.264;2023-10-31T08:38:33;6;6;
78063;PMS5003;67429;51.596;-3.264;2023-10-31T08:40:59;8;8;
78063;PMS5003;67429;51.596;-3.264;2023-10-31T08:43:24;8;7;
78063;PMS5003;67429;51.596;-3.264;2023-10-31T08:45:50;8;8;
78063;PMS5003;67429;51.596;-3.264;2023-10-31T08:48:15;11;11;
78063;PMS5003;67429;51.596;-3.264;2023-10-31T08:50:43;11;11;
78063;PMS5003;67429;51.596;-3.264;2023-10-31T08:53:07;18;17;
78063;PMS5003;67429;51.596;-3.264;2023-10-31T08:55:32;15;15;
78063;PMS5003;67429;51.596;-3.264;2023-10-31T08:57:57;15;15;
78063;PMS5003;67429;51.596;-3.264;2023-10-31T09:00:22;15;15;
78063;PMS5003;67429;51.596;-3.264;2023-10-31T09:02:48;20;19;
78063;PMS5003;67429;51.596;-3.264;2023-10-31T09:05:13;18;16;
78063;PMS5003;67429;51.596;-3.264;2023-10-31T09:07:39;17;15;
78063;PMS5003;67429;51.596;-3.264;2023-10-31T09:10:05;19;18;
78063;PMS5003;67429;51.596;-3.264;2023-10-31T09:12:30;20;18;
78063;PMS5003;67429;51.596;-3.264;2023-10-31T09:14:56;17;17;
78063;PMS5003;67429;51.596;-3.264;2023-10-31T09:17:21;14;14;
78063;PMS5003;67429;51.596;-3.264;2023-10-31T09:19:48;18;17;
78063;PMS5003;67429;51.596;-3.264;2023-10-31T09:22:13;15;14;
78063;PMS5003;67429;51.596;-3.264;2023-10-31T09:24:37;15;14;
78063;PMS5003;67429;51.596;-3.264;2023-10-31T09:27:03;12;12;
78063;PMS5003;67429;51.596;-3.264;2023-10-31T09:29:29;13;13;
78063;PMS5003;67429;51.596;-3.264;2023-10-31T09:31:55;12;11;
78063;PMS5003;67429;51.596;-3.264;2023-10-31T09:34:19;10;10;
78063;PMS5003;67429;51.596;-3.264;2023-10-31T09:36:45;9;9;
78063;PMS5003;67429;51.596;-3.264;2023-10-31T09:39:10;13;13;
78063;PMS5003;67429;51.596;-3.264;2023-10-31T09:41:36;17;16;
78063;PMS5003;67429;51.596;-3.264;2023-10-31T09:44:03;14;14;
78063;PMS5003;67429;51.596;-3.264;2023-10-31T09:46:28;16;15;
78063;PMS5003;67429;51.596;-3.264;2023-10-31T09:48:53;16;16;
78063;PMS5003;67429;51.596;-3.264;2023-10-31T09:51:18;19;19;
78063;PMS5003;67429;51.596;-3.264;2023-10-31T09:53:44;35;34;
78063;PMS5003;67429;51.596;-3.264;2023-10-31T09:56:09;17;17;
78063;PMS5003;67429;51.596;-3.264;2023-10-31T09:58:35;15;15;
78063;PMS5003;67429;51.596;-3.264;2023-10-31T10:01:00;7;6;
78063;PMS5003;67429;51.596;-3.264;2023-10-31T10:03:26;4;4;
78063;PMS5003;67429;51.596;-3.264;2023-10-31T10:05:51;3;3;
78063;PMS5003;67429;51.596;-3.264;2023-10-31T10:08:17;45;43;
78063;PMS5003;67429;51.596;-3.264;2023-10-31T10:10:42;27;27;
78063;PMS5003;67429;51.596;-3.264;2023-10-31T10:13:08;1;1;
78063;PMS5003;67429;51.596;-3.264;2023-10-31T10:17:59;1;1;
78063;PMS5003;67429;51.596;-3.264;2023-10-31T10:20:24;3;2;
78063;PMS5003;67429;51.596;-3.264;2023-10-31T10:22:50;1;1;
78063;PMS5003;67429;51.596;-3.264;2023-10-31T10:25:17;1;1;
78063;PMS5003;67429;51.596;-3.264;2023-10-31T10:27:41;2;2;
78063;PMS5003;67429;51.596;-3.264;2023-10-31T10:30:07;3;3;
78063;PMS5003;67429;51.596;-3.264;2023-10-31T10:32:32;2;2;
78063;PMS5003;67429;51.596;-3.264;2023-10-31T10:34:58;3;3;
78063;PMS5003;67429;51.596;-3.264;2023-10-31T10:37:23;3;2;
78063;PMS5003;67429;51.596;-3.264;2023-10-31T10:39:49;1;1;
78063;PMS5003;67429;51.596;-3.264;2023-10-31T10:42:16;0;0;
78063;PMS5003;67429;51.596;-3.264;2023-10-31T10:44:41;9;8;
78063;PMS5003;67429;51.596;-3.264;2023-10-31T10:47:06;3;2;
78063;PMS5003;67429;51.596;-3.264;2023-10-31T10:49:33;0;0;
78063;PMS5003;67429;51.596;-3.264;2023-10-31T10:51:58;2;2;
78063;PMS5003;67429;51.596;-3.264;2023-10-31T10:54:25;0;0;
78063;PMS5003;67429;51.596;-3.264;2023-10-31T10:56:50;1;1;
78063;PMS5003;67429;51.596;-3.264;2023-10-31T10:59:14;0;0;
78063;PMS5003;67429;51.596;-3.264;2023-10-31T11:01:39;0;0;
78063;PMS5003;67429;51.596;-3.264;2023-10-31T11:04:05;0;0;
78063;PMS5003;67429;51.596;-3.264;2023-10-31T11:06:32;1;1;
78063;PMS5003;67429;51.596;-3.264;2023-10-31T11:08:56;0;0;
78063;PMS5003;67429;51.596;-3.264;2023-10-31T11:11:22;0;0;
78063;PMS5003;67429;51.596;-3.264;2023-10-31T11:13:47;0;0;
78063;PMS5003;67429;51.596;-3.264;2023-10-31T11:16:15;0;0;
78063;PMS5003;67429;51.596;-3.264;2023-10-31T11:18:39;0;0;
78063;PMS5003;67429;51.596;-3.264;2023-10-31T11:21:04;1;1;
78063;PMS5003;67429;51.596;-3.264;2023-10-31T11:23:31;5;4;
78063;PMS5003;67429;51.596;-3.264;2023-10-31T11:25:55;8;8;
78063;PMS5003;67429;51.596;-3.264;2023-10-31T11:28:21;3;2;
78063;PMS5003;67429;51.596;-3.264;2023-10-31T11:30:48;0;0;
78063;PMS5003;67429;51.596;-3.264;2023-10-31T11:33:12;7;7;
78063;PMS5003;67429;51.596;-3.264;2023-10-31T11:35:38;2;2;
78063;PMS5003;67429;51.596;-3.264;2023-10-31T11:38:03;1;1;
78063;PMS5003;67429;51.596;-3.264;2023-10-31T11:40:28;1;1;
78063;PMS5003;67429;51.596;-3.264;2023-10-31T11:42:56;0;0;
78063;PMS5003;67429;51.596;-3.264;2023-10-31T11:45:25;1;1;
78063;PMS5003;67429;51.596;-3.264;2023-10-31T11:47:45;0;0;
78063;PMS5003;67429;51.596;-3.264;2023-10-31T11:50:10;7;5;
78063;PMS5003;67429;51.596;-3.264;2023-10-31T11:52:36;8;8;
78063;PMS5003;67429;51.596;-3.264;2023-10-31T11:55:02;1;1;
78063;PMS5003;67429;51.596;-3.264;2023-10-31T11:57:27;2;2;
78063;PMS5003;67429;51.596;-3.264;2023-10-31T11:59:52;3;3;
78063;PMS5003;67429;51.596;-3.264;2023-10-31T12:02:18;3;3;
78063;PMS5003;67429;51.596;-3.264;2023-10-31T12:04:44;3;2;
78063;PMS5003;67429;51.596;-3.264;2023-10-31T12:07:09;0;0;
78063;PMS5003;67429;51.596;-3.264;2023-10-31T12:12:00;2;2;
78063;PMS5003;67429;51.596;-3.264;2023-10-31T12:14:25;0;0;
78063;PMS5003;67429;51.596;-3.264;2023-10-31T12:16:51;2;2;
78063;PMS5003;67429;51.596;-3.264;2023-10-31T12:19:17;1;1;
78063;PMS5003;67429;51.596;-3.264;2023-10-31T12:21:43;4;4;
78063;PMS5003;67429;51.596;-3.264;2023-10-31T12:24:08;4;4;
78063;PMS5003;67429;51.596;-3.264;2023-10-31T12:26:33;2;2;
78063;PMS5003;67429;51.596;-3.264;2023-10-31T12:31:25;6;4;
78063;PMS5003;67429;51.596;-3.264;2023-10-31T12:33:50;2;2;
78063;PMS5003;67429;51.596;-3.264;2023-10-31T12:36:15;2;2;
78063;PMS5003;67429;51.596;-3.264;2023-10-31T12:38:41;5;3;
78063;PMS5003;67429;51.596;-3.264;2023-10-31T12:41:06;3;3;
78063;PMS5003;67429;51.596;-3.264;2023-10-31T12:43:32;2;2;
78063;PMS5003;67429;51.596;-3.264;2023-10-31T12:45:57;3;2;
78063;PMS5003;67429;51.596;-3.264;2023-10-31T12:48:23;2;2;
78063;PMS5003;67429;51.596;-3.264;2023-10-31T12:50:48;3;3;
78063;PMS5003;67429;51.596;-3.264;2023-10-31T12:53:22;2;2;
78063;PMS5003;67429;51.596;-3.264;2023-10-31T12:55:40;1;1;
78063;PMS5003;67429;51.596;-3.264;2023-10-31T12:58:05;0;0;
78063;PMS5003;67429;51.596;-3.264;2023-10-31T13:00:31;0;0;
78063;PMS5003;67429;51.596;-3.264;2023-10-31T13:02:59;1;1;
78063;PMS5003;67429;51.596;-3.264;2023-10-31T13:05:24;0;0;
78063;PMS5003;67429;51.596;-3.264;2023-10-31T13:07:48;1;0;
78063;PMS5003;67429;51.596;-3.264;2023-10-31T13:10:12;0;0;
78063;PMS5003;67429;51.596;-3.264;2023-10-31T13:12:38;1;1;
78063;PMS5003;67429;51.596;-3.264;2023-10-31T13:15:04;1;1;
78063;PMS5003;67429;51.596;-3.264;2023-10-31T13:17:28;2;2;
78063;PMS5003;67429;51.596;-3.264;2023-10-31T13:19:54;1;1;
78063;PMS5003;67429;51.596;-3.264;2023-10-31T13:22:19;1;0;
78063;PMS5003;67429;51.596;-3.264;2023-10-31T13:24:45;0;0;
78063;PMS5003;67429;51.596;-3.264;2023-10-31T13:27:10;0;0;
78063;PMS5003;67429;51.596;-3.264;2023-10-31T13:29:36;1;1;
78063;PMS5003;67429;51.596;-3.264;2023-10-31T13:32:01;0;0;
78063;PMS5003;67429;51.596;-3.264;2023-10-31T13:34:27;1;1;
78063;PMS5003;67429;51.596;-3.264;2023-10-31T13:36:52;0;0;
78063;PMS5003;67429;51.596;-3.264;2023-10-31T13:39:18;1;1;
78063;PMS5003;67429;51.596;-3.264;2023-10-31T13:41:43;0;0;
78063;PMS5003;67429;51.596;-3.264;2023-10-31T13:44:09;1;0;
78063;PMS5003;67429;51.596;-3.264;2023-10-31T13:46:34;1;1;
78063;PMS5003;67429;51.596;-3.264;2023-10-31T13:49:00;0;0;
78063;PMS5003;67429;51.596;-3.264;2023-10-31T13:51:25;0;0;
78063;PMS5003;67429;51.596;-3.264;2023-10-31T13:53:51;2;1;
78063;PMS5003;67429;51.596;-3.264;2023-10-31T13:56:16;2;2;
78063;PMS5003;67429;51.596;-3.264;2023-10-31T13:58:42;0;0;
78063;PMS5003;67429;51.596;-3.264;2023-10-31T14:01:07;0;0;
78063;PMS5003;67429;51.596;-3.264;2023-10-31T14:03:33;1;1;
78063;PMS5003;67429;51.596;-3.264;2023-10-31T14:05:58;2;2;
78063;PMS5003;67429;51.596;-3.264;2023-10-31T14:08:24;1;1;
78063;PMS5003;67429;51.596;-3.264;2023-10-31T14:10:49;1;1;
78063;PMS5003;67429;51.596;-3.264;2023-10-31T14:13:15;1;1;
78063;PMS5003;67429;51.596;-3.264;2023-10-31T14:15:40;1;1;
78063;PMS5003;67429;51.596;-3.264;2023-10-31T14:18:06;2;2;
78063;PMS5003;67429;51.596;-3.264;2023-10-31T14:20:31;0;0;
78063;PMS5003;67429;51.596;-3.264;2023-10-31T14:22:57;1;1;
78063;PMS5003;67429;51.596;-3.264;2023-10-31T14:25:22;1;0;
78063;PMS5003;67429;51.596;-3.264;2023-10-31T14:27:48;2;0;
78063;PMS5003;67429;51.596;-3.264;2023-10-31T14:30:13;1;1;
78063;PMS5003;67429;51.596;-3.264;2023-10-31T14:32:39;0;0;
78063;PMS5003;67429;51.596;-3.264;2023-10-31T14:35:05;1;1;
78063;PMS5003;67429;51.596;-3.264;2023-10-31T14:37:30;3;3;
78063;PMS5003;67429;51.596;-3.264;2023-10-31T14:39:55;1;0;
78063;PMS5003;67429;51.596;-3.264;2023-10-31T14:42:21;1;1;
78063;PMS5003;67429;51.596;-3.264;2023-10-31T14:44:46;1;1;
78063;PMS5003;67429;51.596;-3.264;2023-10-31T14:47:12;2;1;
78063;PMS5003;67429;51.596;-3.264;2023-10-31T14:49:37;1;0;
78063;PMS5003;67429;51.596;-3.264;2023-10-31T14:52:03;1;1;
78063;PMS5003;67429;51.596;-3.264;2023-10-31T14:54:28;1;1;
78063;PMS5003;67429;51.596;-3.264;2023-10-31T14:56:54;2;1;
78063;PMS5003;67429;51.596;-3.264;2023-10-31T14:59:19;1;1;
78063;PMS5003;67429;51.596;-3.264;2023-10-31T15:01:45;2;1;
78063;PMS5003;67429;51.596;-3.264;2023-10-31T15:04:10;1;1;
78063;PMS5003;67429;51.596;-3.264;2023-10-31T15:06:36;0;0;
78063;PMS5003;67429;51.596;-3.264;2023-10-31T15:09:01;0;0;
78063;PMS5003;67429;51.596;-3.264;2023-10-31T15:11:27;1;1;
78063;PMS5003;67429;51.596;-3.264;2023-10-31T15:13:52;4;2;
78063;PMS5003;67429;51.596;-3.264;2023-10-31T15:16:18;0;0;
78063;PMS5003;67429;51.596;-3.264;2023-10-31T15:18:43;1;1;
78063;PMS5003;67429;51.596;-3.264;2023-10-31T15:21:09;1;0;
78063;PMS5003;67429;51.596;-3.264;2023-10-31T15:23:34;1;1;
78063;PMS5003;67429;51.596;-3.264;2023-10-31T15:26:00;0;0;
78063;PMS5003;67429;51.596;-3.264;2023-10-31T15:28:25;3;2;
78063;PMS5003;67429;51.596;-3.264;2023-10-31T15:30:51;1;1;
78063;PMS5003;67429;51.596;-3.264;2023-10-31T15:33:16;1;0;
78063;PMS5003;67429;51.596;-3.264;2023-10-31T15:35:42;5;2;
78063;PMS5003;67429;51.596;-3.264;2023-10-31T15:38:08;1;1;
78063;PMS5003;67429;51.596;-3.264;2023-10-31T15:40:33;0;0;
78063;PMS5003;67429;51.596;-3.264;2023-10-31T15:42:58;2;1;
78063;PMS5003;67429;51.596;-3.264;2023-10-31T15:45:24;2;1;
78063;PMS5003;67429;51.596;-3.264;2023-10-31T15:47:49;1;1;
78063;PMS5003;67429;51.596;-3.264;2023-10-31T15:50:15;3;2;
78063;PMS5003;67429;51.596;-3.264;2023-10-31T15:52:41;1;1;
78063;PMS5003;67429;51.596;-3.264;2023-10-31T15:55:06;2;2;
78063;PMS5003;67429;51.596;-3.264;2023-10-31T15:57:32;2;1;
78063;PMS5003;67429;51.596;-3.264;2023-10-31T15:59:57;3;2;
78063;PMS5003;67429;51.596;-3.264;2023-10-31T16:02:23;1;1;
78063;PMS5003;67429;51.596;-3.264;2023-10-31T16:04:48;1;1;
78063;PMS5003;67429;51.596;-3.264;2023-10-31T16:07:14;1;1;
78063;PMS5003;67429;51.596;-3.264;2023-10-31T16:09:39;2;1;
78063;PMS5003;67429;51.596;-3.264;2023-10-31T16:12:05;2;2;
78063;PMS5003;67429;51.596;-3.264;2023-10-31T16:14:31;2;1;
78063;PMS5003;67429;51.596;-3.264;2023-10-31T16:16:56;3;3;
78063;PMS5003;67429;51.596;-3.264;2023-10-31T16:19:22;1;1;
78063;PMS5003;67429;51.596;-3.264;2023-10-31T16:21:48;2;1;
78063;PMS5003;67429;51.596;-3.264;2023-10-31T16:24:12;4;3;
78063;PMS5003;67429;51.596;-3.264;2023-10-31T16:26:38;4;3;